sensor_id;sensor_type;location;lat;lon;timestamp;temperature;humidity
69747;DHT22;57018;50.278;19.134;2022-12-10T00:02:07;2.30;99.90
69747;DHT22;57018;50.278;19.134;2022-12-10T00:04:37;2.20;99.90
69747;DHT22;57018;50.278;19.134;2022-12-10T00:07:06;2.30;99.90
69747;DHT22;57018;50.278;19.134;2022-12-10T00:09:37;2.00;99.90
69747;DHT22;57018;50.278;19.134;2022-12-10T00:12:08;2.10;99.90
69747;DHT22;57018;50.278;19.134;2022-12-10T00:14:38;2.20;99.90
69747;DHT22;57018;50.278;19.134;2022-12-10T00:17:07;2.20;99.90
69747;DHT22;57018;50.278;19.134;2022-12-10T00:19:37;2.40;99.90
69747;DHT22;57018;50.278;19.134;2022-12-10T00:22:07;2.20;99.90
69747;DHT22;57018;50.278;19.134;2022-12-10T00:24:37;2.20;99.90
69747;DHT22;57018;50.278;19.134;2022-12-10T00:27:07;2.00;99.90
69747;DHT22;57018;50.278;19.134;2022-12-10T00:29:37;2.10;99.90
69747;DHT22;57018;50.278;19.134;2022-12-10T00:32:07;2.20;99.90
69747;DHT22;57018;50.278;19.134;2022-12-10T00:34:37;2.20;99.90
69747;DHT22;57018;50.278;19.134;2022-12-10T00:37:07;2.20;99.90
69747;DHT22;57018;50.278;19.134;2022-12-10T00:39:37;2.10;99.90
69747;DHT22;57018;50.278;19.134;2022-12-10T00:42:07;2.30;99.90
69747;DHT22;57018;50.278;19.134;2022-12-10T00:44:37;2.30;99.90
69747;DHT22;57018;50.278;19.134;2022-12-10T00:47:07;2.10;99.90
69747;DHT22;57018;50.278;19.134;2022-12-10T00:49:37;2.00;99.90
69747;DHT22;57018;50.278;19.134;2022-12-10T00:52:06;2.10;99.90
69747;DHT22;57018;50.278;19.134;2022-12-10T00:54:37;2.10;99.90
69747;DHT22;57018;50.278;19.134;2022-12-10T00:57:06;2.10;99.90
69747;DHT22;57018;50.278;19.134;2022-12-10T00:59:37;2.10;99.90
69747;DHT22;57018;50.278;19.134;2022-12-10T01:02:07;1.90;99.90
69747;DHT22;57018;50.278;19.134;2022-12-10T01:04:37;2.00;99.90
69747;DHT22;57018;50.278;19.134;2022-12-10T01:07:07;2.00;99.90
69747;DHT22;57018;50.278;19.134;2022-12-10T01:09:37;2.10;99.90
69747;DHT22;57018;50.278;19.134;2022-12-10T01:12:08;2.00;99.90
69747;DHT22;57018;50.278;19.134;2022-12-10T01:14:38;2.10;99.90
69747;DHT22;57018;50.278;19.134;2022-12-10T01:17:08;2.10;99.90
69747;DHT22;57018;50.278;19.134;2022-12-10T01:19:38;2.10;99.90
69747;DHT22;57018;50.278;19.134;2022-12-10T01:22:07;2.20;99.90
69747;DHT22;57018;50.278;19.134;2022-12-10T01:24:36;2.20;99.90
69747;DHT22;57018;50.278;19.134;2022-12-10T01:27:04;2.20;99.90
69747;DHT22;57018;50.278;19.134;2022-12-10T01:29:34;2.00;99.90
69747;DHT22;57018;50.278;19.134;2022-12-10T01:32:04;2.20;99.90
69747;DHT22;57018;50.278;19.134;2022-12-10T01:34:34;2.00;99.90
69747;DHT22;57018;50.278;19.134;2022-12-10T01:37:04;2.20;99.90
69747;DHT22;57018;50.278;19.134;2022-12-10T01:39:34;2.10;99.90
69747;DHT22;57018;50.278;19.134;2022-12-10T01:42:04;2.20;99.90
69747;DHT22;57018;50.278;19.134;2022-12-10T01:44:58;2.10;99.90
69747;DHT22;57018;50.278;19.134;2022-12-10T01:47:28;2.10;99.90
69747;DHT22;57018;50.278;19.134;2022-12-10T01:49:58;2.10;99.90
69747;DHT22;57018;50.278;19.134;2022-12-10T01:55:40;2.10;99.90
69747;DHT22;57018;50.278;19.134;2022-12-10T01:58:11;2.00;99.90
69747;DHT22;57018;50.278;19.134;2022-12-10T02:00:47;2.20;99.90
69747;DHT22;57018;50.278;19.134;2022-12-10T02:03:23;2.20;99.90
69747;DHT22;57018;50.278;19.134;2022-12-10T02:06:04;2.10;99.90
69747;DHT22;57018;50.278;19.134;2022-12-10T02:08:41;2.30;99.90
69747;DHT22;57018;50.278;19.134;2022-12-10T02:11:17;2.10;99.90
69747;DHT22;57018;50.278;19.134;2022-12-10T02:13:55;2.10;99.90
69747;DHT22;57018;50.278;19.134;2022-12-10T02:16:32;2.10;99.90
69747;DHT22;57018;50.278;19.134;2022-12-10T02:19:11;2.20;99.90
69747;DHT22;57018;50.278;19.134;2022-12-10T02:21:45;2.20;99.90
69747;DHT22;57018;50.278;19.134;2022-12-10T02:24:20;2.20;99.90
69747;DHT22;57018;50.278;19.134;2022-12-10T02:26:51;2.40;99.90
69747;DHT22;57018;50.278;19.134;2022-12-10T02:29:27;2.20;99.90
69747;DHT22;57018;50.278;19.134;2022-12-10T02:32:02;2.10;99.90
69747;DHT22;57018;50.278;19.134;2022-12-10T02:34:35;2.20;99.90
69747;DHT22;57018;50.278;19.134;2022-12-10T02:37:05;2.20;99.90
69747;DHT22;57018;50.278;19.134;2022-12-10T02:39:40;2.30;99.90
69747;DHT22;57018;50.278;19.134;2022-12-10T02:42:17;2.30;99.90
69747;DHT22;57018;50.278;19.134;2022-12-10T02:44:50;2.30;99.90
69747;DHT22;57018;50.278;19.134;2022-12-10T02:47:20;2.30;99.90
69747;DHT22;57018;50.278;19.134;2022-12-10T02:49:53;2.30;99.90
69747;DHT22;57018;50.278;19.134;2022-12-10T02:52:22;2.50;99.90
69747;DHT22;57018;50.278;19.134;2022-12-10T02:54:53;2.40;99.90
69747;DHT22;57018;50.278;19.134;2022-12-10T02:57:37;2.30;99.90
69747;DHT22;57018;50.278;19.134;2022-12-10T03:00:15;2.20;99.90
69747;DHT22;57018;50.278;19.134;2022-12-10T03:02:52;2.40;99.90
69747;DHT22;57018;50.278;19.134;2022-12-10T03:05:30;2.50;99.90
69747;DHT22;57018;50.278;19.134;2022-12-10T03:08:07;2.10;99.90
69747;DHT22;57018;50.278;19.134;2022-12-10T03:10:37;2.30;99.90
69747;DHT22;57018;50.278;19.134;2022-12-10T03:13:13;2.40;99.90
69747;DHT22;57018;50.278;19.134;2022-12-10T03:15:44;2.20;99.90
69747;DHT22;57018;50.278;19.134;2022-12-10T03:18:17;2.40;99.90
69747;DHT22;57018;50.278;19.134;2022-12-10T03:20:49;2.40;99.90
69747;DHT22;57018;50.278;19.134;2022-12-10T03:23:20;2.40;99.90
69747;DHT22;57018;50.278;19.134;2022-12-10T03:25:51;2.50;99.90
69747;DHT22;57018;50.278;19.134;2022-12-10T03:28:23;2.50;99.90
69747;DHT22;57018;50.278;19.134;2022-12-10T03:30:55;2.40;99.90
69747;DHT22;57018;50.278;19.134;2022-12-10T03:33:26;2.40;99.90
69747;DHT22;57018;50.278;19.134;2022-12-10T03:35:56;2.40;99.90
69747;DHT22;57018;50.278;19.134;2022-12-10T03:38:26;2.40;99.90
69747;DHT22;57018;50.278;19.134;2022-12-10T03:40:56;2.60;99.90
69747;DHT22;57018;50.278;19.134;2022-12-10T03:43:26;2.30;99.90
69747;DHT22;57018;50.278;19.134;2022-12-10T03:45:56;2.50;99.90
69747;DHT22;57018;50.278;19.134;2022-12-10T03:48:26;2.40;99.90
69747;DHT22;57018;50.278;19.134;2022-12-10T03:50:56;2.30;99.90
69747;DHT22;57018;50.278;19.134;2022-12-10T03:53:26;2.60;99.90
69747;DHT22;57018;50.278;19.134;2022-12-10T03:55:56;2.40;99.90
69747;DHT22;57018;50.278;19.134;2022-12-10T03:58:26;2.30;99.90
69747;DHT22;57018;50.278;19.134;2022-12-10T04:00:56;2.50;99.90
69747;DHT22;57018;50.278;19.134;2022-12-10T04:03:26;2.40;99.90
69747;DHT22;57018;50.278;19.134;2022-12-10T04:06:00;2.60;99.90
69747;DHT22;57018;50.278;19.134;2022-12-10T04:08:30;2.40;99.90
69747;DHT22;57018;50.278;19.134;2022-12-10T04:11:05;2.40;99.90
69747;DHT22;57018;50.278;19.134;2022-12-10T04:13:36;2.50;99.90
69747;DHT22;57018;50.278;19.134;2022-12-10T04:16:22;2.60;99.90
69747;DHT22;57018;50.278;19.134;2022-12-10T04:18:58;2.30;99.90
69747;DHT22;57018;50.278;19.134;2022-12-10T04:21:30;2.50;99.90
69747;DHT22;57018;50.278;19.134;2022-12-10T04:24:21;2.60;99.90
69747;DHT22;57018;50.278;19.134;2022-12-10T04:27:11;2.40;99.90
69747;DHT22;57018;50.278;19.134;2022-12-10T04:29:42;2.40;99.90
69747;DHT22;57018;50.278;19.134;2022-12-10T04:32:11;2.20;99.90
69747;DHT22;57018;50.278;19.134;2022-12-10T04:34:41;2.20;99.90
69747;DHT22;57018;50.278;19.134;2022-12-10T04:37:12;2.10;99.90
69747;DHT22;57018;50.278;19.134;2022-12-10T04:39:42;2.20;99.90
69747;DHT22;57018;50.278;19.134;2022-12-10T04:42:12;2.10;99.90
69747;DHT22;57018;50.278;19.134;2022-12-10T04:44:43;2.00;99.90
69747;DHT22;57018;50.278;19.134;2022-12-10T04:47:13;2.00;99.90
69747;DHT22;57018;50.278;19.134;2022-12-10T04:49:43;1.90;99.90
69747;DHT22;57018;50.278;19.134;2022-12-10T04:52:14;1.90;99.90
69747;DHT22;57018;50.278;19.134;2022-12-10T04:54:45;1.90;99.90
69747;DHT22;57018;50.278;19.134;2022-12-10T04:57:15;2.10;99.90
69747;DHT22;57018;50.278;19.134;2022-12-10T04:59:45;2.10;99.90
69747;DHT22;57018;50.278;19.134;2022-12-10T05:02:15;2.20;99.90
69747;DHT22;57018;50.278;19.134;2022-12-10T05:04:45;2.20;99.90
69747;DHT22;57018;50.278;19.134;2022-12-10T05:07:13;2.20;99.90
69747;DHT22;57018;50.278;19.134;2022-12-10T05:09:43;2.30;99.90
69747;DHT22;57018;50.278;19.134;2022-12-10T05:12:12;2.20;99.90
69747;DHT22;57018;50.278;19.134;2022-12-10T05:14:42;2.20;99.90
69747;DHT22;57018;50.278;19.134;2022-12-10T05:17:12;2.30;99.90
69747;DHT22;57018;50.278;19.134;2022-12-10T05:19:42;2.10;99.90
69747;DHT22;57018;50.278;19.134;2022-12-10T05:22:12;2.10;99.90
69747;DHT22;57018;50.278;19.134;2022-12-10T05:24:59;2.30;99.90
69747;DHT22;57018;50.278;19.134;2022-12-10T05:27:33;2.20;99.90
69747;DHT22;57018;50.278;19.134;2022-12-10T05:30:02;2.10;99.90
69747;DHT22;57018;50.278;19.134;2022-12-10T05:32:32;2.20;99.90
69747;DHT22;57018;50.278;19.134;2022-12-10T05:35:02;2.20;99.90
69747;DHT22;57018;50.278;19.134;2022-12-10T05:37:32;2.20;99.90
69747;DHT22;57018;50.278;19.134;2022-12-10T05:40:03;2.30;99.90
69747;DHT22;57018;50.278;19.134;2022-12-10T05:42:32;2.20;99.90
69747;DHT22;57018;50.278;19.134;2022-12-10T05:45:02;2.30;99.90
69747;DHT22;57018;50.278;19.134;2022-12-10T05:47:32;2.20;99.90
69747;DHT22;57018;50.278;19.134;2022-12-10T05:50:03;2.20;99.90
69747;DHT22;57018;50.278;19.134;2022-12-10T05:52:33;2.00;99.90
69747;DHT22;57018;50.278;19.134;2022-12-10T05:55:03;2.10;99.90
69747;DHT22;57018;50.278;19.134;2022-12-10T05:57:33;2.10;99.90
69747;DHT22;57018;50.278;19.134;2022-12-10T06:00:03;2.10;99.90
69747;DHT22;57018;50.278;19.134;2022-12-10T06:02:35;2.10;99.90
69747;DHT22;57018;50.278;19.134;2022-12-10T06:05:05;2.00;99.90
69747;DHT22;57018;50.278;19.134;2022-12-10T06:07:35;1.90;99.90
69747;DHT22;57018;50.278;19.134;2022-12-10T06:10:06;1.90;99.90
69747;DHT22;57018;50.278;19.134;2022-12-10T06:12:36;2.00;99.90
69747;DHT22;57018;50.278;19.134;2022-12-10T06:15:07;2.00;99.90
69747;DHT22;57018;50.278;19.134;2022-12-10T06:17:37;2.10;99.90
69747;DHT22;57018;50.278;19.134;2022-12-10T06:20:10;2.10;99.90
69747;DHT22;57018;50.278;19.134;2022-12-10T06:22:40;1.90;99.90
69747;DHT22;57018;50.278;19.134;2022-12-10T06:25:10;1.90;99.90
69747;DHT22;57018;50.278;19.134;2022-12-10T06:27:41;1.90;99.90
69747;DHT22;57018;50.278;19.134;2022-12-10T06:30:13;1.80;99.90
69747;DHT22;57018;50.278;19.134;2022-12-10T06:32:42;2.00;99.90
69747;DHT22;57018;50.278;19.134;2022-12-10T06:35:12;2.00;99.90
69747;DHT22;57018;50.278;19.134;2022-12-10T06:37:42;2.00;99.90
69747;DHT22;57018;50.278;19.134;2022-12-10T06:40:13;2.00;99.90
69747;DHT22;57018;50.278;19.134;2022-12-10T06:42:43;2.00;99.90
69747;DHT22;57018;50.278;19.134;2022-12-10T06:45:12;2.00;99.90
69747;DHT22;57018;50.278;19.134;2022-12-10T06:47:42;2.00;99.90
69747;DHT22;57018;50.278;19.134;2022-12-10T06:50:13;2.00;99.90
69747;DHT22;57018;50.278;19.134;2022-12-10T06:52:42;2.00;99.90
69747;DHT22;57018;50.278;19.134;2022-12-10T06:55:12;2.10;99.90
69747;DHT22;57018;50.278;19.134;2022-12-10T06:57:42;1.90;99.90
69747;DHT22;57018;50.278;19.134;2022-12-10T07:00:15;2.20;99.90
69747;DHT22;57018;50.278;19.134;2022-12-10T07:02:44;2.30;99.90
69747;DHT22;57018;50.278;19.134;2022-12-10T07:05:15;2.40;99.90
69747;DHT22;57018;50.278;19.134;2022-12-10T07:07:45;2.40;99.90
69747;DHT22;57018;50.278;19.134;2022-12-10T07:10:15;2.40;99.90
69747;DHT22;57018;50.278;19.134;2022-12-10T07:12:45;2.60;99.90
69747;DHT22;57018;50.278;19.134;2022-12-10T07:15:15;2.80;99.90
69747;DHT22;57018;50.278;19.134;2022-12-10T07:17:45;2.50;99.90
69747;DHT22;57018;50.278;19.134;2022-12-10T07:20:15;2.70;99.90
69747;DHT22;57018;50.278;19.134;2022-12-10T07:22:45;2.70;99.90
69747;DHT22;57018;50.278;19.134;2022-12-10T07:25:15;2.60;99.90
69747;DHT22;57018;50.278;19.134;2022-12-10T07:27:45;2.40;99.90
69747;DHT22;57018;50.278;19.134;2022-12-10T07:30:15;2.50;99.90
69747;DHT22;57018;50.278;19.134;2022-12-10T07:32:45;2.40;99.90
69747;DHT22;57018;50.278;19.134;2022-12-10T07:35:15;2.20;99.90
69747;DHT22;57018;50.278;19.134;2022-12-10T07:37:45;2.40;99.90
69747;DHT22;57018;50.278;19.134;2022-12-10T07:40:15;2.50;99.90
69747;DHT22;57018;50.278;19.134;2022-12-10T07:42:44;2.40;99.90
69747;DHT22;57018;50.278;19.134;2022-12-10T07:45:14;2.50;99.90
69747;DHT22;57018;50.278;19.134;2022-12-10T07:47:44;2.50;99.90
69747;DHT22;57018;50.278;19.134;2022-12-10T07:50:14;2.50;99.90
69747;DHT22;57018;50.278;19.134;2022-12-10T07:52:44;2.60;99.90
69747;DHT22;57018;50.278;19.134;2022-12-10T07:55:14;2.50;99.90
69747;DHT22;57018;50.278;19.134;2022-12-10T07:57:45;2.40;99.90
69747;DHT22;57018;50.278;19.134;2022-12-10T08:00:16;2.70;99.90
69747;DHT22;57018;50.278;19.134;2022-12-10T08:02:46;2.60;99.90
69747;DHT22;57018;50.278;19.134;2022-12-10T08:05:16;2.70;99.90
69747;DHT22;57018;50.278;19.134;2022-12-10T08:07:46;2.60;99.90
69747;DHT22;57018;50.278;19.134;2022-12-10T08:10:16;2.70;99.90
69747;DHT22;57018;50.278;19.134;2022-12-10T08:12:47;2.60;99.90
69747;DHT22;57018;50.278;19.134;2022-12-10T08:15:17;2.70;99.90
69747;DHT22;57018;50.278;19.134;2022-12-10T08:17:47;2.70;99.90
69747;DHT22;57018;50.278;19.134;2022-12-10T08:20:17;2.70;99.90
69747;DHT22;57018;50.278;19.134;2022-12-10T08:22:47;2.50;99.90
69747;DHT22;57018;50.278;19.134;2022-12-10T08:25:17;2.60;99.90
69747;DHT22;57018;50.278;19.134;2022-12-10T08:27:47;2.80;99.90
69747;DHT22;57018;50.278;19.134;2022-12-10T08:30:17;2.50;99.90
69747;DHT22;57018;50.278;19.134;2022-12-10T08:32:46;2.40;99.90
69747;DHT22;57018;50.278;19.134;2022-12-10T08:35:16;2.50;99.90
69747;DHT22;57018;50.278;19.134;2022-12-10T08:37:46;2.30;99.90
69747;DHT22;57018;50.278;19.134;2022-12-10T08:40:16;2.40;99.90
69747;DHT22;57018;50.278;19.134;2022-12-10T08:42:46;2.60;99.90
69747;DHT22;57018;50.278;19.134;2022-12-10T08:45:16;2.50;99.90
69747;DHT22;57018;50.278;19.134;2022-12-10T08:47:46;2.60;99.90
69747;DHT22;57018;50.278;19.134;2022-12-10T08:50:15;2.60;99.90
69747;DHT22;57018;50.278;19.134;2022-12-10T08:52:44;2.90;99.90
69747;DHT22;57018;50.278;19.134;2022-12-10T08:55:14;2.80;99.90
69747;DHT22;57018;50.278;19.134;2022-12-10T08:57:44;2.90;99.60
69747;DHT22;57018;50.278;19.134;2022-12-10T09:00:14;3.00;99.70
69747;DHT22;57018;50.278;19.134;2022-12-10T09:02:44;3.20;99.50
69747;DHT22;57018;50.278;19.134;2022-12-10T09:05:12;3.40;99.20
69747;DHT22;57018;50.278;19.134;2022-12-10T09:07:42;3.40;98.60
69747;DHT22;57018;50.278;19.134;2022-12-10T09:10:12;3.50;98.60
69747;DHT22;57018;50.278;19.134;2022-12-10T09:12:42;3.50;97.90
69747;DHT22;57018;50.278;19.134;2022-12-10T09:15:12;3.20;97.70
69747;DHT22;57018;50.278;19.134;2022-12-10T09:17:42;3.40;97.60
69747;DHT22;57018;50.278;19.134;2022-12-10T09:20:14;3.60;98.40
69747;DHT22;57018;50.278;19.134;2022-12-10T09:22:44;3.40;98.30
69747;DHT22;57018;50.278;19.134;2022-12-10T09:25:14;3.40;97.00
69747;DHT22;57018;50.278;19.134;2022-12-10T09:27:45;3.30;96.60
69747;DHT22;57018;50.278;19.134;2022-12-10T09:30:15;3.20;97.70
69747;DHT22;57018;50.278;19.134;2022-12-10T09:32:45;3.00;97.70
69747;DHT22;57018;50.278;19.134;2022-12-10T09:35:15;2.90;98.70
69747;DHT22;57018;50.278;19.134;2022-12-10T09:37:45;3.20;98.60
69747;DHT22;57018;50.278;19.134;2022-12-10T09:40:18;3.20;98.30
69747;DHT22;57018;50.278;19.134;2022-12-10T09:42:58;3.30;97.80
69747;DHT22;57018;50.278;19.134;2022-12-10T09:45:38;3.10;98.40
69747;DHT22;57018;50.278;19.134;2022-12-10T09:48:20;3.10;98.80
69747;DHT22;57018;50.278;19.134;2022-12-10T09:50:55;3.40;98.60
69747;DHT22;57018;50.278;19.134;2022-12-10T09:53:27;3.10;98.60
69747;DHT22;57018;50.278;19.134;2022-12-10T09:55:59;3.10;98.30
69747;DHT22;57018;50.278;19.134;2022-12-10T09:58:30;2.90;98.60
69747;DHT22;57018;50.278;19.134;2022-12-10T10:01:03;2.70;99.10
69747;DHT22;57018;50.278;19.134;2022-12-10T10:03:37;2.60;99.50
69747;DHT22;57018;50.278;19.134;2022-12-10T10:06:11;2.80;99.40
69747;DHT22;57018;50.278;19.134;2022-12-10T10:08:43;2.80;99.90
69747;DHT22;57018;50.278;19.134;2022-12-10T10:11:19;2.90;99.90
69747;DHT22;57018;50.278;19.134;2022-12-10T10:13:56;2.80;99.80
69747;DHT22;57018;50.278;19.134;2022-12-10T10:16:30;3.10;99.40
69747;DHT22;57018;50.278;19.134;2022-12-10T10:19:04;2.80;99.70
69747;DHT22;57018;50.278;19.134;2022-12-10T10:21:38;3.00;99.00
69747;DHT22;57018;50.278;19.134;2022-12-10T10:24:14;2.70;99.80
69747;DHT22;57018;50.278;19.134;2022-12-10T10:26:45;2.70;99.90
69747;DHT22;57018;50.278;19.134;2022-12-10T10:29:20;2.70;99.90
69747;DHT22;57018;50.278;19.134;2022-12-10T10:32:13;2.40;99.90
69747;DHT22;57018;50.278;19.134;2022-12-10T10:34:44;2.70;99.90
69747;DHT22;57018;50.278;19.134;2022-12-10T10:37:23;2.50;99.90
69747;DHT22;57018;50.278;19.134;2022-12-10T10:39:57;2.70;99.90
69747;DHT22;57018;50.278;19.134;2022-12-10T10:42:36;2.90;99.90
69747;DHT22;57018;50.278;19.134;2022-12-10T10:45:29;2.90;99.90
69747;DHT22;57018;50.278;19.134;2022-12-10T10:48:06;2.60;99.90
69747;DHT22;57018;50.278;19.134;2022-12-10T10:50:40;2.80;99.90
69747;DHT22;57018;50.278;19.134;2022-12-10T10:53:29;2.60;99.90
69747;DHT22;57018;50.278;19.134;2022-12-10T10:56:06;2.60;99.90
69747;DHT22;57018;50.278;19.134;2022-12-10T10:58:52;2.40;99.90
69747;DHT22;57018;50.278;19.134;2022-12-10T11:01:25;2.50;99.90
69747;DHT22;57018;50.278;19.134;2022-12-10T11:03:58;2.30;99.90
69747;DHT22;57018;50.278;19.134;2022-12-10T11:06:30;2.40;99.90
69747;DHT22;57018;50.278;19.134;2022-12-10T11:09:00;2.20;99.90
69747;DHT22;57018;50.278;19.134;2022-12-10T11:11:36;2.30;99.90
69747;DHT22;57018;50.278;19.134;2022-12-10T11:14:23;2.30;99.90
69747;DHT22;57018;50.278;19.134;2022-12-10T11:17:02;2.30;99.90
69747;DHT22;57018;50.278;19.134;2022-12-10T11:19:32;2.40;99.90
69747;DHT22;57018;50.278;19.134;2022-12-10T11:24:59;2.50;99.90
69747;DHT22;57018;50.278;19.134;2022-12-10T11:27:42;2.40;99.90
69747;DHT22;57018;50.278;19.134;2022-12-10T11:30:17;2.30;99.90
69747;DHT22;57018;50.278;19.134;2022-12-10T11:33:09;2.40;99.90
69747;DHT22;57018;50.278;19.134;2022-12-10T11:35:48;2.40;99.90
69747;DHT22;57018;50.278;19.134;2022-12-10T11:38:27;2.40;99.90
69747;DHT22;57018;50.278;19.134;2022-12-10T11:41:04;2.60;99.90
69747;DHT22;57018;50.278;19.134;2022-12-10T11:43:50;2.70;99.90
69747;DHT22;57018;50.278;19.134;2022-12-10T11:46:41;2.60;99.90
69747;DHT22;57018;50.278;19.134;2022-12-10T11:49:17;2.40;99.90
69747;DHT22;57018;50.278;19.134;2022-12-10T11:51:56;2.50;99.90
69747;DHT22;57018;50.278;19.134;2022-12-10T11:54:43;2.60;99.90
69747;DHT22;57018;50.278;19.134;2022-12-10T11:57:23;2.70;99.90
69747;DHT22;57018;50.278;19.134;2022-12-10T12:00:03;2.70;99.90
69747;DHT22;57018;50.278;19.134;2022-12-10T12:02:47;2.70;99.90
69747;DHT22;57018;50.278;19.134;2022-12-10T12:05:46;2.70;99.90
69747;DHT22;57018;50.278;19.134;2022-12-10T12:08:24;2.60;99.90
69747;DHT22;57018;50.278;19.134;2022-12-10T12:11:00;2.60;99.90
69747;DHT22;57018;50.278;19.134;2022-12-10T12:13:35;2.50;99.90
69747;DHT22;57018;50.278;19.134;2022-12-10T12:16:09;2.70;99.90
69747;DHT22;57018;50.278;19.134;2022-12-10T12:18:45;2.80;99.90
69747;DHT22;57018;50.278;19.134;2022-12-10T12:21:17;2.70;99.90
69747;DHT22;57018;50.278;19.134;2022-12-10T12:23:52;2.80;99.90
69747;DHT22;57018;50.278;19.134;2022-12-10T12:26:28;2.80;99.90
69747;DHT22;57018;50.278;19.134;2022-12-10T12:29:05;2.60;99.90
69747;DHT22;57018;50.278;19.134;2022-12-10T12:31:41;2.90;99.90
69747;DHT22;57018;50.278;19.134;2022-12-10T12:34:18;2.80;99.90
69747;DHT22;57018;50.278;19.134;2022-12-10T12:36:52;2.90;99.90
69747;DHT22;57018;50.278;19.134;2022-12-10T12:39:28;2.90;99.60
69747;DHT22;57018;50.278;19.134;2022-12-10T12:42:11;2.80;99.60
69747;DHT22;57018;50.278;19.134;2022-12-10T12:44:52;2.80;99.90
69747;DHT22;57018;50.278;19.134;2022-12-10T12:47:34;2.50;99.90
69747;DHT22;57018;50.278;19.134;2022-12-10T12:50:20;2.20;99.90
69747;DHT22;57018;50.278;19.134;2022-12-10T12:52:56;2.20;99.90
69747;DHT22;57018;50.278;19.134;2022-12-10T12:55:31;2.10;99.90
69747;DHT22;57018;50.278;19.134;2022-12-10T12:58:13;2.30;99.90
69747;DHT22;57018;50.278;19.134;2022-12-10T13:00:48;2.30;99.90
69747;DHT22;57018;50.278;19.134;2022-12-10T13:03:27;2.20;99.90
69747;DHT22;57018;50.278;19.134;2022-12-10T13:06:13;2.30;99.90
69747;DHT22;57018;50.278;19.134;2022-12-10T13:08:47;2.40;99.90
69747;DHT22;57018;50.278;19.134;2022-12-10T13:11:24;2.40;99.90
69747;DHT22;57018;50.278;19.134;2022-12-10T13:14:30;2.50;99.90
69747;DHT22;57018;50.278;19.134;2022-12-10T13:17:26;2.60;99.90
69747;DHT22;57018;50.278;19.134;2022-12-10T13:20:31;2.80;99.90
69747;DHT22;57018;50.278;19.134;2022-12-10T13:23:02;2.50;99.90
69747;DHT22;57018;50.278;19.134;2022-12-10T13:25:54;2.60;99.90
69747;DHT22;57018;50.278;19.134;2022-12-10T13:28:30;2.50;99.90
69747;DHT22;57018;50.278;19.134;2022-12-10T13:31:35;2.60;99.90
69747;DHT22;57018;50.278;19.134;2022-12-10T13:34:29;2.70;99.80
69747;DHT22;57018;50.278;19.134;2022-12-10T13:37:30;2.60;99.90
69747;DHT22;57018;50.278;19.134;2022-12-10T13:40:14;2.60;99.90
69747;DHT22;57018;50.278;19.134;2022-12-10T13:42:54;2.70;99.90
69747;DHT22;57018;50.278;19.134;2022-12-10T13:45:43;2.70;99.70
69747;DHT22;57018;50.278;19.134;2022-12-10T13:48:32;2.70;99.90
69747;DHT22;57018;50.278;19.134;2022-12-10T13:51:15;2.80;99.40
69747;DHT22;57018;50.278;19.134;2022-12-10T13:53:54;2.70;99.90
69747;DHT22;57018;50.278;19.134;2022-12-10T13:56:29;2.70;99.70
69747;DHT22;57018;50.278;19.134;2022-12-10T13:59:31;2.80;99.70
69747;DHT22;57018;50.278;19.134;2022-12-10T14:02:21;2.90;99.10
69747;DHT22;57018;50.278;19.134;2022-12-10T14:05:13;2.90;98.90
69747;DHT22;57018;50.278;19.134;2022-12-10T14:07:48;2.70;99.40
69747;DHT22;57018;50.278;19.134;2022-12-10T14:10:22;2.70;99.60
69747;DHT22;57018;50.278;19.134;2022-12-10T14:12:54;2.70;99.90
69747;DHT22;57018;50.278;19.134;2022-12-10T14:15:25;2.80;99.90
69747;DHT22;57018;50.278;19.134;2022-12-10T14:18:01;2.40;99.90
69747;DHT22;57018;50.278;19.134;2022-12-10T14:20:33;2.40;99.90
69747;DHT22;57018;50.278;19.134;2022-12-10T14:26:11;2.10;99.90
69747;DHT22;57018;50.278;19.134;2022-12-10T14:28:44;2.10;99.90
69747;DHT22;57018;50.278;19.134;2022-12-10T14:31:21;2.00;99.90
69747;DHT22;57018;50.278;19.134;2022-12-10T14:33:52;2.00;99.90
69747;DHT22;57018;50.278;19.134;2022-12-10T14:36:28;2.20;99.90
69747;DHT22;57018;50.278;19.134;2022-12-10T14:38:57;2.20;99.90
69747;DHT22;57018;50.278;19.134;2022-12-10T14:41:30;2.10;99.90
69747;DHT22;57018;50.278;19.134;2022-12-10T14:44:03;2.10;99.90
69747;DHT22;57018;50.278;19.134;2022-12-10T14:46:33;2.20;99.90
69747;DHT22;57018;50.278;19.134;2022-12-10T14:49:02;2.40;99.90
69747;DHT22;57018;50.278;19.134;2022-12-10T14:51:36;2.20;99.90
69747;DHT22;57018;50.278;19.134;2022-12-10T14:54:05;2.20;99.90
69747;DHT22;57018;50.278;19.134;2022-12-10T14:56:54;2.10;99.90
69747;DHT22;57018;50.278;19.134;2022-12-10T14:59:23;2.40;99.90
69747;DHT22;57018;50.278;19.134;2022-12-10T15:01:56;2.20;99.90
69747;DHT22;57018;50.278;19.134;2022-12-10T15:04:31;2.30;99.90
69747;DHT22;57018;50.278;19.134;2022-12-10T15:07:13;2.20;99.90
69747;DHT22;57018;50.278;19.134;2022-12-10T15:09:44;2.30;99.90
69747;DHT22;57018;50.278;19.134;2022-12-10T15:12:31;2.30;99.90
69747;DHT22;57018;50.278;19.134;2022-12-10T15:15:09;2.20;99.90
69747;DHT22;57018;50.278;19.134;2022-12-10T15:17:41;2.00;99.90
69747;DHT22;57018;50.278;19.134;2022-12-10T15:20:23;2.00;99.90
69747;DHT22;57018;50.278;19.134;2022-12-10T15:22:53;2.10;99.90
69747;DHT22;57018;50.278;19.134;2022-12-10T15:25:27;2.10;99.90
69747;DHT22;57018;50.278;19.134;2022-12-10T15:28:00;1.90;99.90
69747;DHT22;57018;50.278;19.134;2022-12-10T15:30:38;2.20;99.90
69747;DHT22;57018;50.278;19.134;2022-12-10T15:33:25;2.00;99.90
69747;DHT22;57018;50.278;19.134;2022-12-10T15:35:58;2.20;99.90
69747;DHT22;57018;50.278;19.134;2022-12-10T15:38:28;2.40;99.90
69747;DHT22;57018;50.278;19.134;2022-12-10T15:41:22;2.40;99.90
69747;DHT22;57018;50.278;19.134;2022-12-10T15:44:00;2.30;99.90
69747;DHT22;57018;50.278;19.134;2022-12-10T15:46:30;2.20;99.90
69747;DHT22;57018;50.278;19.134;2022-12-10T15:49:00;2.30;99.90
69747;DHT22;57018;50.278;19.134;2022-12-10T15:51:30;2.40;99.90
69747;DHT22;57018;50.278;19.134;2022-12-10T15:54:00;2.00;99.90
69747;DHT22;57018;50.278;19.134;2022-12-10T15:56:30;2.00;99.90
69747;DHT22;57018;50.278;19.134;2022-12-10T15:59:00;2.40;99.90
69747;DHT22;57018;50.278;19.134;2022-12-10T16:01:30;2.20;99.90
69747;DHT22;57018;50.278;19.134;2022-12-10T16:04:00;2.50;99.90
69747;DHT22;57018;50.278;19.134;2022-12-10T16:06:30;2.40;99.90
69747;DHT22;57018;50.278;19.134;2022-12-10T16:09:00;2.30;99.90
69747;DHT22;57018;50.278;19.134;2022-12-10T16:11:30;2.30;99.90
69747;DHT22;57018;50.278;19.134;2022-12-10T16:14:00;1.70;99.90
69747;DHT22;57018;50.278;19.134;2022-12-10T16:16:31;1.80;99.90
69747;DHT22;57018;50.278;19.134;2022-12-10T16:19:04;2.10;99.90
69747;DHT22;57018;50.278;19.134;2022-12-10T16:21:33;2.00;99.90